createdAt,value
2022-08-07T00:02:36.475Z,10.72
2022-08-07T00:07:20.812Z,10.62
2022-08-07T00:12:22.716Z,10.69
2022-08-07T00:17:30.046Z,10.63
2022-08-07T00:22:37.452Z,10.67
2022-08-07T00:27:52.533Z,10.59
2022-08-07T00:32:57.381Z,10.44
2022-08-07T00:38:01.136Z,10.39
2022-08-07T00:43:02.845Z,10.14
2022-08-07T00:48:09.740Z,10.36
2022-08-07T00:53:13.069Z,10.29
2022-08-07T00:58:14.683Z,10.28
2022-08-07T01:03:17.077Z,10.14
2022-08-07T01:08:18.934Z,10.28
2022-08-07T01:13:21.917Z,10.18
2022-08-07T01:18:25.009Z,10.04
2022-08-07T01:23:38.549Z,9.97
2022-08-07T01:28:45.738Z,9.87
2022-08-07T01:33:55.700Z,9.99
2022-08-07T01:39:09.477Z,9.88
2022-08-07T01:44:13.273Z,9.83
2022-08-07T01:49:16.488Z,9.72
2022-08-07T01:54:33.225Z,9.69
2022-08-07T01:59:50.501Z,9.45
2022-08-07T02:05:04.674Z,9.49
2022-08-07T02:10:14.328Z,9.39
2022-08-07T02:15:28.035Z,9.48
2022-08-07T02:20:32.097Z,9.25
2022-08-07T02:26:31.668Z,9.24
2022-08-07T02:31:18.685Z,9.35
2022-08-07T02:36:30.777Z,9.18
2022-08-07T02:41:39.814Z,9.24
2022-08-07T02:46:53.814Z,9.06
2022-08-07T02:59:03.205Z,9.16
2022-08-07T03:04:12.497Z,9.01
2022-08-07T03:09:43.809Z,9.12
2022-08-07T03:14:42.880Z,9.00
2022-08-07T03:19:55.083Z,9.02
2022-08-07T03:25:00.342Z,8.94
2022-08-07T03:30:06.013Z,8.91
2022-08-07T03:35:18.527Z,8.70
2022-08-07T03:40:30.898Z,8.74
2022-08-07T03:45:39.679Z,8.78
2022-08-07T03:50:55.692Z,8.58
2022-08-07T03:56:04.450Z,8.34
2022-08-07T04:01:11.669Z,8.65
2022-08-07T04:06:36.206Z,8.65
2022-08-07T04:12:24.514Z,8.55
2022-08-07T04:17:03.230Z,8.71
2022-08-07T04:22:14.446Z,8.75
2022-08-07T04:27:25.346Z,8.51
2022-08-07T04:32:34.708Z,8.69
2022-08-07T04:37:52.902Z,8.71
2022-08-07T04:43:03.610Z,8.71
2022-08-07T04:48:38.087Z,8.62
2022-08-07T04:54:05.474Z,8.81
2022-08-07T05:00:11.889Z,9.23
2022-08-07T05:05:03.274Z,9.45
2022-08-07T05:10:21.871Z,9.44
2022-08-07T05:15:36.298Z,9.72
2022-08-07T05:20:46.550Z,10.06
2022-08-07T05:26:10.612Z,10.28
2022-08-07T05:31:16.774Z,10.67
2022-08-07T05:36:30.192Z,11.00
2022-08-07T05:42:01.735Z,11.38
2022-08-07T05:46:55.320Z,11.66
2022-08-07T05:52:00.048Z,11.89
2022-08-07T05:57:06.851Z,12.29
2022-08-07T06:02:22.529Z,12.45
2022-08-07T06:08:05.454Z,12.61
2022-08-07T06:12:57.795Z,12.88
2022-08-07T06:17:59.843Z,13.12
2022-08-07T06:23:46.421Z,13.28
2022-08-07T06:28:32.777Z,13.62
2022-08-07T06:33:36.201Z,13.73
2022-08-07T06:38:38.211Z,13.96
2022-08-07T06:43:46.096Z,14.14
2022-08-07T06:48:52.661Z,14.49
2022-08-07T06:55:29.353Z,14.72
2022-08-07T07:00:12.200Z,15.17
2022-08-07T07:04:56.947Z,15.54
2022-08-07T07:09:59.061Z,16.08
2022-08-07T07:22:11.441Z,17.83
2022-08-07T07:27:21.328Z,18.12
2022-08-07T07:32:24.854Z,18.71
2022-08-07T07:37:44.470Z,18.77
2022-08-07T07:42:55.665Z,19.80
2022-08-07T07:47:59.775Z,19.70
2022-08-07T07:53:03.075Z,20.32
2022-08-07T07:58:06.177Z,20.51
2022-08-07T08:03:16.853Z,20.42
2022-08-07T08:08:39.419Z,20.64
2022-08-07T08:13:53.867Z,21.37
2022-08-07T08:19:00.390Z,21.20
2022-08-07T08:24:44.855Z,21.95
2022-08-07T08:29:56.230Z,22.10
2022-08-07T08:34:59.868Z,21.99
2022-08-07T08:40:03.093Z,22.53
2022-08-07T08:45:17.001Z,22.55
2022-08-07T08:50:35.007Z,23.36
2022-08-07T08:55:58.518Z,22.77
2022-08-07T09:01:40.053Z,22.94
2022-08-07T09:06:47.833Z,22.70
2022-08-07T09:12:02.826Z,23.59
2022-08-07T09:17:33.934Z,23.51
2022-08-07T09:24:32.197Z,23.60
2022-08-07T09:30:04.644Z,23.87
2022-08-07T09:34:22.691Z,24.15
2022-08-07T09:39:57.951Z,24.30
2022-08-07T09:47:25.883Z,23.93
2022-08-07T09:50:54.869Z,23.80
2022-08-07T09:56:47.847Z,24.26
2022-08-07T10:02:11.288Z,23.84
2022-08-07T10:07:53.411Z,24.16
2022-08-07T10:12:59.421Z,24.21
2022-08-07T10:18:08.846Z,24.80
2022-08-07T10:24:04.877Z,24.42
2022-08-07T10:29:12.393Z,24.00
2022-08-07T10:34:59.024Z,24.44
2022-08-07T10:40:21.832Z,24.73
2022-08-07T10:45:44.362Z,25.76
2022-08-07T10:50:54.886Z,25.37
2022-08-07T10:56:44.184Z,25.16
2022-08-07T11:02:04.775Z,24.56
2022-08-07T11:07:59.629Z,24.26
2022-08-07T11:13:01.917Z,23.71
2022-08-07T11:18:15.865Z,22.96
2022-08-07T11:23:30.627Z,23.16
2022-08-07T11:28:53.516Z,22.58
2022-08-07T11:34:10.237Z,22.84
2022-08-07T11:46:43.762Z,23.73
2022-08-07T11:52:05.723Z,24.27
2022-08-07T11:57:59.575Z,23.11
2022-08-07T12:03:04.947Z,25.23
2022-08-07T12:08:59.240Z,24.61
2022-08-07T12:14:29.894Z,24.80
2022-08-07T12:20:02.544Z,25.38
2022-08-07T12:26:05.612Z,25.25
2022-08-07T12:31:52.350Z,25.32
2022-08-07T12:36:53.534Z,25.38
2022-08-07T12:41:56.816Z,25.15
2022-08-07T12:47:09.778Z,25.19
2022-08-07T12:52:19.225Z,23.93
2022-08-07T12:57:38.890Z,24.91
2022-08-07T13:10:20.665Z,24.77
2022-08-07T13:15:31.885Z,24.98
2022-08-07T13:20:34.125Z,24.93
2022-08-07T13:25:50.703Z,25.07
2022-08-07T13:31:13.134Z,25.37
2022-08-07T13:37:20.770Z,24.61
2022-08-07T13:42:25.910Z,24.99
2022-08-07T13:48:06.923Z,25.05
2022-08-07T13:52:55.059Z,25.27
2022-08-07T13:58:31.432Z,24.53
2022-08-07T14:04:06.872Z,24.71
2022-08-07T14:09:04.790Z,24.36
2022-08-07T14:14:12.188Z,24.59
2022-08-07T14:20:40.914Z,23.67
2022-08-07T14:24:45.676Z,24.42
2022-08-07T14:30:05.462Z,23.95
2022-08-07T14:35:45.327Z,24.02
2022-08-07T14:40:49.562Z,24.20
2022-08-07T14:45:58.059Z,24.07
2022-08-07T14:51:04.584Z,24.42
2022-08-07T14:56:08.857Z,24.57
2022-08-07T15:06:40.529Z,24.66
2022-08-07T15:12:01.464Z,24.32
2022-08-07T15:17:13.488Z,24.15
2022-08-07T15:22:31.216Z,24.36
2022-08-07T15:28:04.092Z,24.78
2022-08-07T15:44:30.215Z,24.43
2022-08-07T15:50:05.091Z,24.73
2022-08-07T15:55:02.350Z,24.37
2022-08-07T16:00:06.362Z,23.61
2022-08-07T16:05:15.178Z,23.57
2022-08-07T16:10:30.215Z,23.73
2022-08-07T16:15:55.482Z,23.62
2022-08-07T16:22:03.174Z,23.64
2022-08-07T16:26:59.339Z,23.11
2022-08-07T16:32:06.579Z,23.27
2022-08-07T16:38:02.763Z,23.34
2022-08-07T16:44:03.861Z,23.31
2022-08-07T16:50:27.190Z,23.47
2022-08-07T16:55:23.000Z,22.99
2022-08-07T17:01:07.946Z,22.67
2022-08-07T17:06:29.269Z,22.60
2022-08-07T17:12:05.017Z,22.61
2022-08-07T17:17:44.016Z,22.68
2022-08-07T17:23:01.543Z,22.73
2022-08-07T17:28:13.638Z,22.81
2022-08-07T17:34:09.732Z,22.59
2022-08-07T17:39:10.051Z,22.52
2022-08-07T17:44:43.962Z,22.31
2022-08-07T17:50:03.296Z,22.13
2022-08-07T17:55:12.672Z,22.00
2022-08-07T18:00:32.974Z,21.83
2022-08-07T18:06:06.654Z,21.59
2022-08-07T18:12:11.804Z,21.40
2022-08-07T18:17:05.383Z,21.23
2022-08-07T18:22:26.273Z,20.99
2022-08-07T18:27:46.232Z,20.87
2022-08-07T18:33:27.822Z,20.53
2022-08-07T18:38:58.640Z,20.39
2022-08-07T18:44:26.889Z,20.07
2022-08-07T18:50:32.559Z,19.96
2022-08-07T18:55:57.477Z,19.74
2022-08-07T19:02:18.325Z,19.47
2022-08-07T19:07:04.199Z,19.17
2022-08-07T19:12:53.451Z,18.93
2022-08-07T19:18:11.710Z,18.68
2022-08-07T19:23:56.928Z,18.44
2022-08-07T19:30:53.495Z,18.24
2022-08-07T19:34:33.820Z,18.07
2022-08-07T19:39:56.877Z,17.73
2022-08-07T19:45:08.505Z,17.62
2022-08-07T19:50:43.149Z,17.48
2022-08-07T19:55:56.353Z,17.20
2022-08-07T20:00:57.319Z,17.08
2022-08-07T20:06:03.107Z,17.00
2022-08-07T20:11:12.247Z,16.81
2022-08-07T20:16:32.324Z,16.66
2022-08-07T20:21:48.135Z,16.54
2022-08-07T20:26:54.542Z,16.58
2022-08-07T20:31:59.779Z,16.34
2022-08-07T20:37:05.606Z,16.30
2022-08-07T20:42:11.300Z,16.24
2022-08-07T20:47:17.904Z,16.12
2022-08-07T20:52:51.847Z,16.00
2022-08-07T20:58:02.437Z,15.94
2022-08-07T21:04:21.881Z,15.88
2022-08-07T21:09:52.470Z,15.78
2022-08-07T21:15:05.390Z,15.68
2022-08-07T21:20:26.683Z,15.69
2022-08-07T21:26:03.195Z,15.43
2022-08-07T21:31:14.349Z,15.44
2022-08-07T21:36:50.337Z,15.36
2022-08-07T21:42:46.813Z,15.35
2022-08-07T21:48:03.331Z,15.35
2022-08-07T21:53:31.607Z,15.22
2022-08-07T21:59:03.268Z,15.20
2022-08-07T22:04:12.834Z,15.00
2022-08-07T22:09:25.405Z,14.98
2022-08-07T22:14:37.579Z,14.70
2022-08-07T22:20:23.559Z,14.76
2022-08-07T22:25:56.957Z,14.59
2022-08-07T22:31:05.573Z,14.48
2022-08-07T22:36:29.282Z,14.47
2022-08-07T22:42:03.302Z,14.57
2022-08-07T22:47:23.256Z,14.68
2022-08-07T22:52:48.000Z,14.57
2022-08-07T22:58:10.576Z,14.53
2022-08-07T23:03:58.278Z,14.40
2022-08-07T23:10:06.383Z,14.39
2022-08-07T23:15:04.659Z,14.25
2022-08-07T23:20:58.676Z,14.27
2022-08-07T23:26:25.159Z,14.16
2022-08-07T23:34:19.765Z,14.17
2022-08-07T23:37:35.472Z,14.19
2022-08-07T23:43:07.780Z,13.98
2022-08-07T23:48:32.929Z,14.05
2022-08-07T23:53:51.061Z,13.73
2022-08-07T23:58:59.310Z,13.69
